Time;durP1;ratioP1;P1;durP2;ratioP2;P2;SDS_P1;SDS_P2;PMS_P1;PMS_P2;Temp;Humidity;BMP_temperature;BMP_pressure;BME280_temperature;BME280_humidity;BME280_pressure;Samples;Min_cycle;Max_cycle;Signal;HPM_P1;HPM_P2
2024/01/22 00:02:05;;;;;;;3.30;2.10;;;8.40;99.90;;;;;;5031776;28;20456;-82
2024/01/22 00:04:43;;;;;;;2.70;1.90;;;8.40;99.90;;;;;;5019751;28;20517;-83
2024/01/22 00:07:17;;;;;;;2.23;1.60;;;8.40;99.90;;;;;;5000214;28;20528;-84
2024/01/22 00:09:46;;;;;;;2.90;1.87;;;8.50;99.90;;;;;;5019562;28;20482;-82
2024/01/22 00:12:13;;;;;;;4.83;2.00;;;8.40;99.90;;;;;;5017517;28;20457;-84
2024/01/22 00:14:40;;;;;;;3.27;2.33;;;8.50;99.90;;;;;;5011806;28;20449;-84
2024/01/22 00:17:09;;;;;;;5.70;1.70;;;8.50;99.90;;;;;;4997666;28;20451;-83
2024/01/22 00:19:35;;;;;;;2.00;1.80;;;8.60;99.90;;;;;;4994056;28;20478;-83
2024/01/22 00:22:02;;;;;;;2.90;1.50;;;8.60;99.90;;;;;;5005237;28;20477;-85
2024/01/22 00:24:32;;;;;;;3.63;2.23;;;8.60;99.90;;;;;;5016312;28;20550;-85
2024/01/22 00:27:00;;;;;;;3.53;1.63;;;8.60;99.90;;;;;;4999517;28;20446;-86
2024/01/22 00:29:27;;;;;;;3.90;2.30;;;8.60;99.90;;;;;;5009557;28;20455;-83
2024/01/22 00:31:53;;;;;;;2.40;2.17;;;8.70;99.90;;;;;;4988737;28;20443;-84
2024/01/22 00:34:22;;;;;;;2.50;1.83;;;8.80;99.90;;;;;;5012447;28;20538;-86
2024/01/22 00:36:52;;;;;;;4.07;1.57;;;8.70;99.90;;;;;;5007623;28;20500;-85
2024/01/22 00:39:21;;;;;;;1.70;1.50;;;8.80;99.90;;;;;;5008349;28;20458;-84
2024/01/22 00:41:51;;;;;;;5.20;2.00;;;8.60;99.90;;;;;;4990038;28;20463;-85
2024/01/22 00:44:17;;;;;;;3.43;1.77;;;8.60;99.90;;;;;;5007408;28;20488;-85
2024/01/22 00:46:48;;;;;;;4.33;2.03;;;8.70;99.90;;;;;;5011261;28;20553;-82
2024/01/22 00:49:15;;;;;;;4.00;1.80;;;;;;;;;;5009584;28;20461;-84
2024/01/22 00:51:43;;;;;;;3.07;1.70;;;;;;;;;;5001062;28;20482;-83
2024/01/22 00:54:11;;;;;;;3.80;1.97;;;;;;;;;;4998180;28;20454;-82
2024/01/22 00:56:38;;;;;;;3.80;2.33;;;;;;;;;;5014458;28;21048;-83
2024/01/22 00:59:06;;;;;;;4.77;1.93;;;;;;;;;;4999432;28;20450;-85
2024/01/22 01:01:33;;;;;;;4.03;1.80;;;;;;;;;;4993497;28;21143;-84
2024/01/22 01:04:00;;;;;;;3.20;1.77;;;;;;;;;;4997393;28;21028;-85
2024/01/22 01:06:28;;;;;;;3.27;1.80;;;;;;;;;;5012006;28;20460;-84
2024/01/22 01:08:56;;;;;;;1.27;1.17;;;;;;;;;;5001905;28;20495;-86
2024/01/22 01:11:23;;;;;;;3.60;1.90;;;;;;;;;;5005423;28;20478;-84
2024/01/22 01:13:51;;;;;;;3.00;1.73;;;;;;;;;;4986275;28;20457;-83
2024/01/22 01:16:18;;;;;;;3.03;2.83;;;;;;;;;;5003004;28;20512;-85
2024/01/22 01:18:46;;;;;;;1.70;1.60;;;;;;;;;;5014457;28;20469;-84
2024/01/22 01:21:13;;;;;;;2.60;1.50;;;8.60;99.90;;;;;;5012413;28;20494;-85
2024/01/22 01:23:42;;;;;;;1.50;1.33;;;9.50;99.90;;;;;;5012013;28;20470;-83
2024/01/22 01:26:10;;;;;;;1.40;1.30;;;9.50;99.90;;;;;;4999152;28;20453;-83
2024/01/22 01:28:38;;;;;;;1.53;1.43;;;9.50;99.90;;;;;;5007851;28;21666;-84
2024/01/22 01:31:05;;;;;;;1.30;1.27;;;9.40;99.90;;;;;;5007086;28;20479;-81
2024/01/22 01:33:34;;;;;;;2.73;2.07;;;9.50;99.90;;;;;;5003170;28;20486;-81
2024/01/22 01:36:00;;;;;;;2.67;1.63;;;9.50;99.90;;;;;;5002159;28;21323;-82
2024/01/22 01:38:27;;;;;;;1.13;1.03;;;9.60;99.90;;;;;;5000123;28;21010;-82
2024/01/22 01:40:54;;;;;;;1.47;1.37;;;9.60;99.90;;;;;;4990388;28;20474;-82
2024/01/22 01:43:21;;;;;;;1.30;1.20;;;9.60;99.90;;;;;;5002827;28;20495;-84
2024/01/22 01:45:47;;;;;;;1.50;1.20;;;9.60;99.90;;;;;;5000538;28;20451;-83
2024/01/22 01:48:15;;;;;;;1.63;1.07;;;;;;;;;;5011934;28;20459;-85
2024/01/22 01:50:43;;;;;;;2.40;1.70;;;;;;;;;;4994367;28;20502;-83
2024/01/22 01:53:10;;;;;;;1.13;1.03;;;;;;;;;;4998833;28;20447;-82
2024/01/22 01:55:38;;;;;;;2.50;1.37;;;;;;;;;;4998202;28;20458;-84
2024/01/22 01:58:06;;;;;;;1.70;1.33;;;;;;;;;;4997712;28;20522;-85
2024/01/22 02:00:34;;;;;;;3.60;0.90;;;;;;;;;;4992004;28;20477;-86
2024/01/22 02:03:02;;;;;;;1.40;1.30;;;;;;;;;;5017522;28;20469;-85
2024/01/22 02:05:29;;;;;;;2.90;1.27;;;;;;;;;;5019592;28;20458;-83
2024/01/22 02:07:56;;;;;;;1.63;1.50;;;;;;;;;;5000089;28;20523;-83
2024/01/22 02:10:27;;;;;;;1.07;0.97;;;;;;;;;;4992595;28;20486;-84
2024/01/22 02:12:54;;;;;;;1.97;1.37;;;;;;;;;;4990146;28;20466;-85
2024/01/22 02:15:22;;;;;;;1.70;1.07;;;;;;;;;;4991596;28;20469;-85
2024/01/22 02:17:49;;;;;;;3.00;1.03;;;;;;;;;;4995030;28;21177;-85
2024/01/22 02:20:17;;;;;;;3.17;1.53;;;;;;;;;;5007436;28;20479;-85
2024/01/22 02:22:44;;;;;;;1.43;1.10;;;;;;;;;;4998614;28;20810;-85
2024/01/22 02:25:12;;;;;;;1.40;1.10;;;;;;;;;;4996985;28;21003;-84
2024/01/22 02:27:40;;;;;;;1.37;0.93;;;;;;;;;;5009872;28;20445;-83
2024/01/22 02:30:07;;;;;;;1.47;1.27;;;;;;;;;;5004147;28;20562;-85
2024/01/22 02:32:34;;;;;;;1.30;1.20;;;;;;;;;;5005370;28;21102;-84
2024/01/22 02:35:01;;;;;;;2.80;1.80;;;;;;;;;;4988836;28;21792;-83
2024/01/22 02:37:29;;;;;;;1.97;1.10;;;;;;;;;;4989879;28;20900;-85
2024/01/22 02:39:56;;;;;;;1.70;1.00;;;;;;;;;;4989298;28;20555;-85
2024/01/22 02:42:23;;;;;;;2.03;1.30;;;;;;;;;;5007043;28;20451;-86
2024/01/22 02:44:52;;;;;;;1.33;1.00;;;;;;;;;;4990557;28;20488;-85
2024/01/22 02:47:22;;;;;;;1.60;1.20;;;;;;;;;;5003930;28;20465;-84
2024/01/22 02:49:49;;;;;;;1.03;0.90;;;;;;;;;;5003568;28;20566;-83
2024/01/22 02:52:17;;;;;;;1.57;1.43;;;;;;;;;;5012610;28;20454;-82
2024/01/22 02:54:44;;;;;;;1.00;0.93;;;;;;;;;;5007802;28;20462;-85
2024/01/22 02:57:14;;;;;;;0.57;0.57;;;;;;;;;;4997229;28;20454;-84
2024/01/22 02:59:42;;;;;;;2.90;1.33;;;;;;;;;;5008946;28;20540;-83
2024/01/22 03:02:10;;;;;;;2.07;0.90;;;;;;;;;;5004799;28;20447;-85
2024/01/22 03:04:38;;;;;;;0.90;0.90;;;;;;;;;;4996336;28;20522;-84
2024/01/22 03:07:05;;;;;;;1.00;0.90;;;;;;;;;;5010528;28;20452;-85
2024/01/22 03:09:32;;;;;;;1.20;1.10;;;;;;;;;;5005917;28;20474;-85
2024/01/22 03:11:59;;;;;;;1.47;0.90;;;;;;;;;;4997557;28;20546;-82
2024/01/22 03:14:26;;;;;;;1.90;1.23;;;;;;;;;;4995222;28;20466;-84
2024/01/22 03:16:53;;;;;;;3.43;1.00;;;;;;;;;;4991574;28;20450;-84
2024/01/22 03:19:21;;;;;;;3.83;1.20;;;;;;;;;;4989308;28;20444;-84
2024/01/22 03:21:48;;;;;;;1.30;1.20;;;;;;;;;;4984797;28;20460;-84
2024/01/22 03:24:18;;;;;;;1.10;1.00;;;;;;;;;;4993882;28;20474;-84
2024/01/22 03:26:45;;;;;;;1.30;1.20;;;;;;;;;;4991875;28;20465;-84
2024/01/22 03:29:12;;;;;;;2.27;1.00;;;;;;;;;;4991947;28;20448;-84
2024/01/22 03:31:39;;;;;;;1.70;1.30;;;;;;;;;;4994039;28;20455;-83
2024/01/22 03:34:06;;;;;;;0.93;0.93;;;;;;;;;;5003997;28;20566;-82
2024/01/22 03:36:37;;;;;;;1.17;0.90;;;;;;;;;;5001196;28;20455;-85
2024/01/22 03:39:06;;;;;;;0.80;0.80;;;;;;;;;;4992286;28;21073;-82
2024/01/22 03:41:34;;;;;;;0.87;0.77;;;;;;;;;;4985087;28;20479;-86
2024/01/22 03:44:02;;;;;;;1.90;1.43;;;;;;;;;;4986664;28;20489;-85
2024/01/22 03:46:29;;;;;;;1.53;0.90;;;;;;;;;;5001537;28;20448;-83
2024/01/22 03:48:57;;;;;;;2.97;0.87;;;;;;;;;;4984342;28;20966;-83
2024/01/22 03:51:25;;;;;;;1.20;0.87;;;;;;;;;;4989257;28;20469;-83
2024/01/22 03:53:53;;;;;;;1.73;0.80;;;;;;;;;;4999054;28;20490;-85
2024/01/22 03:56:20;;;;;;;2.10;0.93;;;;;;;;;;4981173;28;21546;-85
2024/01/22 03:58:48;;;;;;;1.33;0.80;;;;;;;;;;4979800;28;20524;-85
2024/01/22 04:01:24;;;;;;;2.27;0.80;;;;;;;;;;4994914;28;21038;-86
2024/01/22 04:03:51;;;;;;;0.80;0.80;;;;;;;;;;4992201;28;20489;-83
2024/01/22 04:06:18;;;;;;;1.00;0.63;;;;;;;;;;4985019;28;20997;-82
2024/01/22 04:08:46;;;;;;;0.90;0.70;;;;;;;;;;4993293;28;20463;-83
2024/01/22 04:11:13;;;;;;;0.90;0.67;;;;;;;;;;4980153;28;20482;-83
2024/01/22 04:13:40;;;;;;;0.70;0.70;;;;;;;;;;4996096;28;20496;-84
2024/01/22 04:16:12;;;;;;;0.87;0.70;;;;;;;;;;4984169;28;21107;-83
2024/01/22 04:18:41;;;;;;;0.67;0.67;;;;;;;;;;5009500;28;20458;-83
2024/01/22 04:21:08;;;;;;;0.90;0.60;;;;;;;;;;4995841;28;20464;-83
2024/01/22 04:23:36;;;;;;;0.70;0.70;;;;;;;;;;5009696;28;20544;-84
2024/01/22 04:26:04;;;;;;;0.60;0.50;;;;;;;;;;5007438;28;20469;-84
2024/01/22 04:28:31;;;;;;;0.73;0.67;;;;;;;;;;5005138;28;20462;-81
2024/01/22 04:30:58;;;;;;;1.03;0.50;;;;;;;;;;4992212;28;20493;-84
2024/01/22 04:33:25;;;;;;;0.50;0.50;;;;;;;;;;5015174;28;20470;-85
2024/01/22 04:35:52;;;;;;;0.70;0.60;;;;;;;;;;4998173;28;20450;-85
2024/01/22 04:38:19;;;;;;;0.80;0.60;;;;;;;;;;4997589;28;20427;-81
2024/01/22 04:40:47;;;;;;;0.80;0.80;;;;;;;;;;5017999;28;20534;-83
2024/01/22 04:43:14;;;;;;;1.83;0.73;;;;;;;;;;5003309;28;20955;-84
2024/01/22 04:45:41;;;;;;;0.67;0.67;;;;;;;;;;4994016;28;20490;-84
2024/01/22 04:48:08;;;;;;;1.07;0.70;;;;;;;;;;5008580;28;20455;-83
2024/01/22 04:50:35;;;;;;;0.70;0.70;;;;;;;;;;5007434;28;20503;-83
2024/01/22 04:53:02;;;;;;;1.43;0.80;;;;;;;;;;5005549;28;20503;-84
2024/01/22 04:55:30;;;;;;;0.90;0.77;;;;;;;;;;5003613;28;20462;-85
2024/01/22 04:58:00;;;;;;;1.17;0.80;;;;;;;;;;4990453;28;20518;-83
2024/01/22 05:00:27;;;;;;;0.77;0.77;;;;;;;;;;4985968;28;20493;-83
2024/01/22 05:02:54;;;;;;;2.10;1.03;;;;;;;;;;4982824;28;20463;-84
2024/01/22 05:05:23;;;;;;;0.60;0.60;;;;;;;;;;4984800;28;20474;-85
2024/01/22 05:07:50;;;;;;;1.47;0.70;;;;;;;;;;4996954;28;20537;-85
2024/01/22 05:10:17;;;;;;;2.50;0.93;;;;;;;;;;4998598;28;22127;-85
2024/01/22 05:12:44;;;;;;;3.77;0.80;;;;;;;;;;4998133;28;20450;-84
2024/01/22 05:15:12;;;;;;;1.00;0.90;;;;;;;;;;4999641;28;20550;-82
2024/01/22 05:17:40;;;;;;;1.93;0.80;;;;;;;;;;4990215;28;21258;-87
2024/01/22 05:20:08;;;;;;;4.60;0.80;;;;;;;;;;4997744;28;20438;-85
2024/01/22 05:22:35;;;;;;;1.60;0.70;;;;;;;;;;4982508;28;20474;-85
2024/01/22 05:25:03;;;;;;;2.37;1.10;;;;;;;;;;4998318;28;20489;-84
2024/01/22 05:27:30;;;;;;;2.27;0.90;;;;;;;;;;5014488;28;20494;-86
2024/01/22 05:29:58;;;;;;;0.80;0.77;;;;;;;;;;5000502;28;20494;-84
2024/01/22 05:32:25;;;;;;;1.90;0.90;;;;;;;;;;5003031;28;20458;-84
2024/01/22 05:34:52;;;;;;;1.87;0.77;;;;;;;;;;4994868;28;21050;-87
2024/01/22 05:37:19;;;;;;;1.60;0.90;;;;;;;;;;5004792;28;20608;-86
2024/01/22 05:39:46;;;;;;;0.83;0.50;;;;;;;;;;5010274;28;20456;-84
2024/01/22 05:42:13;;;;;;;0.70;0.53;;;;;;;;;;4993877;28;20458;-84
2024/01/22 05:44:40;;;;;;;1.00;0.70;;;;;;;;;;4992401;28;20485;-84
2024/01/22 05:47:08;;;;;;;3.50;1.07;;;;;;;;;;4985926;28;20458;-84
2024/01/22 05:49:35;;;;;;;1.63;0.53;;;;;;;;;;4985881;28;20520;-85
2024/01/22 05:52:02;;;;;;;0.53;0.53;;;;;;;;;;4988569;28;20459;-85
2024/01/22 05:54:29;;;;;;;2.37;0.70;;;;;;;;;;5001277;28;20459;-84
2024/01/22 05:56:57;;;;;;;0.40;0.40;;;;;;;;;;5000839;28;20466;-84
2024/01/22 05:59:24;;;;;;;0.93;0.40;;;;;;;;;;4987599;28;20566;-85
2024/01/22 06:01:54;;;;;;;1.37;0.60;;;;;;;;;;5010986;28;20482;-84
2024/01/22 06:04:24;;;;;;;1.70;0.50;;;;;;;;;;5006656;28;20465;-86
2024/01/22 06:07:00;;;;;;;0.50;0.50;;;;;;;;;;5011092;28;20446;-85
2024/01/22 06:09:32;;;;;;;0.50;0.50;;;;;;;;;;5024672;28;20465;-84
2024/01/22 06:12:04;;;;;;;0.47;0.47;;;;;;;;;;5023184;28;20445;-84
2024/01/22 06:14:34;;;;;;;0.40;0.40;;;;;;;;;;4981193;28;20466;-82
2024/01/22 06:17:01;;;;;;;0.50;0.43;;;;;;;;;;5003499;28;20464;-84
2024/01/22 06:19:28;;;;;;;0.90;0.50;;;;;;;;;;5013990;28;20458;-84
2024/01/22 06:21:55;;;;;;;0.80;0.60;;;;;;;;;;5037648;28;20483;-86
2024/01/22 06:24:22;;;;;;;1.30;0.50;;;;;;;;;;5011844;28;20493;-83
2024/01/22 06:26:50;;;;;;;0.70;0.70;;;;;;;;;;5012918;28;20480;-84
2024/01/22 06:29:17;;;;;;;0.63;0.50;;;;;;;;;;5024029;28;20489;-85
2024/01/22 06:31:45;;;;;;;1.47;0.80;;;;;;;;;;5001171;28;20854;-85
2024/01/22 06:34:12;;;;;;;1.17;0.67;;;;;;;;;;5004333;28;20486;-83
2024/01/22 06:36:39;;;;;;;0.60;0.50;;;;;;;;;;5012248;28;20459;-84
2024/01/22 06:39:09;;;;;;;0.50;0.50;;;;;;;;;;5010896;28;20458;-84
2024/01/22 06:41:37;;;;;;;4.20;0.83;;;;;;;;;;4988571;28;20484;-83
2024/01/22 06:44:05;;;;;;;0.97;0.53;;;;;;;;;;4990283;28;20488;-86
2024/01/22 06:46:32;;;;;;;0.70;0.70;;;;;;;;;;4988339;28;20836;-85
2024/01/22 06:48:59;;;;;;;0.70;0.30;;;;;;;;;;5000896;28;21176;-85
2024/01/22 06:51:30;;;;;;;0.70;0.50;;;;;;;;;;5004501;28;20486;-85
2024/01/22 06:54:00;;;;;;;1.70;1.60;;;9.60;99.90;;;;;;5005018;28;22122;-85
2024/01/22 06:56:28;;;;;;;0.50;0.40;;;;;;;;;;5003489;28;20614;-85
2024/01/22 06:58:55;;;;;;;1.17;0.40;;;;;;;;;;4988846;28;20461;-84
2024/01/22 07:01:22;;;;;;;0.60;0.43;;;;;;;;;;5002328;28;20506;-84
2024/01/22 07:03:50;;;;;;;0.60;0.60;;;;;;;;;;4989209;28;21014;-84
2024/01/22 07:06:18;;;;;;;0.40;0.40;;;;;;;;;;4986300;28;20486;-86
2024/01/22 07:08:48;;;;;;;1.40;0.50;;;;;;;;;;4988420;28;20483;-84
2024/01/22 07:11:15;;;;;;;0.30;0.30;;;;;;;;;;4999118;28;20470;-83
2024/01/22 07:13:42;;;;;;;0.50;0.40;;;;;;;;;;4999424;28;20458;-84
2024/01/22 07:16:09;;;;;;;0.40;0.40;;;;;;;;;;5000456;28;20456;-83
2024/01/22 07:18:36;;;;;;;1.57;0.40;;;;;;;;;;4999655;28;20466;-86
2024/01/22 07:21:04;;;;;;;0.40;0.40;;;;;;;;;;4983497;28;20580;-85
2024/01/22 07:23:31;;;;;;;1.23;0.60;;;;;;;;;;4985458;28;21087;-86
2024/01/22 07:25:59;;;;;;;0.50;0.40;;;;;;;;;;4999753;28;20487;-85
2024/01/22 07:28:27;;;;;;;0.40;0.40;;;;;;;;;;4994128;28;20463;-84
2024/01/22 07:30:54;;;;;;;0.40;0.40;;;;;;;;;;5002581;28;20493;-85
2024/01/22 07:33:21;;;;;;;0.40;0.40;;;;;;;;;;4989966;28;21267;-85
2024/01/22 07:35:48;;;;;;;0.67;0.50;;;;;;;;;;4983403;28;20465;-85
2024/01/22 07:38:15;;;;;;;0.80;0.50;;;;;;;;;;4984272;28;20462;-85
2024/01/22 07:40:42;;;;;;;0.40;0.40;;;;;;;;;;5000371;28;20502;-84
2024/01/22 07:43:10;;;;;;;0.50;0.50;;;;;;;;;;4987622;28;20464;-85
2024/01/22 07:45:38;;;;;;;0.50;0.50;;;;;;;;;;4989840;28;20577;-86
2024/01/22 07:48:05;;;;;;;0.33;0.33;;;;;;;;;;5002487;28;20497;-85
2024/01/22 07:50:32;;;;;;;0.57;0.57;;;;;;;;;;4986922;28;20783;-84
2024/01/22 07:53:00;;;;;;;0.50;0.50;;;;;;;;;;4987926;28;20457;-85
2024/01/22 07:55:28;;;;;;;0.40;0.37;;;;;;;;;;5002828;28;21059;-86
2024/01/22 07:57:55;;;;;;;0.40;0.40;;;;;;;;;;4987195;28;20457;-85
2024/01/22 08:00:22;;;;;;;0.50;0.50;;;;;;;;;;5000252;28;20569;-85
2024/01/22 08:02:49;;;;;;;0.40;0.40;;;;;;;;;;4984559;28;20469;-85
2024/01/22 08:05:17;;;;;;;0.80;0.40;;;;;;;;;;5001660;28;20494;-83
2024/01/22 08:07:44;;;;;;;0.47;0.47;;;;;;;;;;4989713;28;21068;-85
2024/01/22 08:10:12;;;;;;;0.50;0.50;;;;;;;;;;4995652;28;21510;-85
2024/01/22 08:12:40;;;;;;;0.60;0.60;;;;;;;;;;4989466;28;20458;-85
2024/01/22 08:15:14;;;;;;;0.77;0.43;;;;;;;;;;5005407;28;20501;-83
2024/01/22 08:17:43;;;;;;;0.53;0.50;;;;;;;;;;4984542;28;20460;-83
2024/01/22 08:20:10;;;;;;;0.50;0.50;;;;;;;;;;5006089;28;20553;-87
2024/01/22 08:22:38;;;;;;;0.57;0.57;;;;;;;;;;4991884;28;20447;-86
2024/01/22 08:25:05;;;;;;;0.50;0.50;;;;;;;;;;4989707;28;20490;-85
2024/01/22 08:27:32;;;;;;;0.70;0.57;;;;;;;;;;4989377;28;20475;-85
2024/01/22 08:29:59;;;;;;;0.40;0.40;;;;;;;;;;4988006;28;20524;-86
2024/01/22 08:32:27;;;;;;;0.40;0.40;;;;;;;;;;5012337;28;20504;-86
2024/01/22 08:34:54;;;;;;;0.60;0.40;;;;;;;;;;4991896;28;20524;-85
2024/01/22 08:37:22;;;;;;;0.60;0.60;;;;;;;;;;4997415;28;20499;-84
2024/01/22 08:39:49;;;;;;;1.80;0.50;;;;;;;;;;4984859;28;21087;-85
2024/01/22 08:42:17;;;;;;;0.40;0.40;;;;;;;;;;5004126;28;20451;-83
2024/01/22 08:44:45;;;;;;;0.60;0.60;;;;;;;;;;4990847;28;20446;-84
2024/01/22 08:47:16;;;;;;;1.60;0.50;;;;;;;;;;5004903;28;20466;-85
2024/01/22 08:49:43;;;;;;;0.40;0.30;;;;;;;;;;4988239;28;20546;-85
2024/01/22 08:52:11;;;;;;;0.70;0.43;;;;;;;;;;4993375;28;20472;-84
2024/01/22 08:54:38;;;;;;;1.43;0.63;;;;;;;;;;4995991;28;20511;-83
2024/01/22 08:57:06;;;;;;;0.43;0.43;;;;;;;;;;5002190;28;20468;-85
2024/01/22 08:59:34;;;;;;;0.60;0.60;;;;;;;;;;4992121;28;20500;-85
2024/01/22 09:02:02;;;;;;;1.17;0.50;;;;;;;;;;4987683;28;21066;-86
2024/01/22 09:04:30;;;;;;;0.93;0.40;;;;;;;;;;5004701;28;20483;-86
2024/01/22 09:06:58;;;;;;;0.63;0.60;;;;;;;;;;4996266;28;20483;-85
2024/01/22 09:09:25;;;;;;;1.63;0.40;;;;;;;;;;4995532;28;20833;-84
2024/01/22 09:11:52;;;;;;;0.93;0.67;;;;;;;;;;5011103;28;20457;-83
2024/01/22 09:14:20;;;;;;;0.80;0.60;;;;;;;;;;5000101;28;20454;-84
2024/01/22 09:16:47;;;;;;;0.50;0.50;;;;;;;;;;5020825;28;20465;-85
2024/01/22 09:19:14;;;;;;;2.17;1.17;;;;;;;;;;5020924;28;20467;-83
2024/01/22 09:21:41;;;;;;;1.30;0.50;;;;;;;;;;5020121;28;20518;-83
2024/01/22 09:24:08;;;;;;;1.13;0.60;;;;;;;;;;5021254;28;20459;-85
2024/01/22 09:26:35;;;;;;;0.90;0.63;;;;;;;;;;5021326;28;20466;-84
2024/01/22 09:29:02;;;;;;;0.40;0.40;;;;;;;;;;5005048;28;20470;-83
2024/01/22 09:31:32;;;;;;;0.93;0.67;;;;;;;;;;5005469;28;20495;-83
2024/01/22 09:34:00;;;;;;;0.90;0.70;;;;;;;;;;5008172;28;20461;-85
2024/01/22 09:36:27;;;;;;;1.13;0.77;;;;;;;;;;5021048;28;20548;-85
2024/01/22 09:38:56;;;;;;;1.23;0.77;;;;;;;;;;5019192;28;20450;-83
2024/01/22 09:41:23;;;;;;;2.67;1.10;;;;;;;;;;5009500;28;20477;-81
2024/01/22 09:43:51;;;;;;;4.33;0.87;;;;;;;;;;5022143;28;20478;-83
2024/01/22 09:46:18;;;;;;;1.97;0.90;;;;;;;;;;5020516;28;20558;-85
2024/01/22 09:48:49;;;;;;;1.97;0.90;;;;;;;;;;4999036;28;20467;-86
2024/01/22 09:51:18;;;;;;;1.60;0.90;;;;;;;;;;5010227;28;20574;-84
2024/01/22 09:53:46;;;;;;;2.50;1.10;;;;;;;;;;5007424;28;20459;-82
2024/01/22 09:56:19;;;;;;;3.40;1.10;;;;;;;;;;5016070;28;20450;-82
2024/01/22 09:58:49;;;;;;;1.97;0.93;;;;;;;;;;4998883;28;20486;-84
2024/01/22 10:01:16;;;;;;;1.27;0.97;;;;;;;;;;5009310;28;21237;-83
2024/01/22 10:03:44;;;;;;;1.20;1.07;;;;;;;;;;4997183;28;20481;-83
2024/01/22 10:06:14;;;;;;;5.87;1.33;;;;;;;;;;4997706;28;20491;-82
2024/01/22 10:08:41;;;;;;;2.90;1.00;;;;;;;;;;4992333;28;20502;-83
2024/01/22 10:11:09;;;;;;;2.50;1.27;;;;;;;;;;5007929;28;20933;-83
2024/01/22 10:13:50;;;;;;;1.20;0.80;;;;;;;;;;4994356;28;20447;-82
2024/01/22 10:16:17;;;;;;;1.90;0.80;;;;;;;;;;5009284;28;20532;-84
2024/01/22 10:18:56;;;;;;;3.40;0.90;;;;;;;;;;5011583;28;20490;-85
2024/01/22 10:21:23;;;;;;;2.00;1.17;;;;;;;;;;4992803;28;20506;-83
2024/01/22 10:24:06;;;;;;;1.30;0.93;;;;;;;;;;5005878;28;21580;-84
2024/01/22 10:26:34;;;;;;;0.60;0.50;;;;;;;;;;4991977;28;20478;-84
2024/01/22 10:29:19;;;;;;;0.40;0.40;;;;;;;;;;4997337;28;20494;-84
2024/01/22 10:31:56;;;;;;;0.60;0.60;;;;;;;;;;5000028;28;20554;-83
2024/01/22 10:34:43;;;;;;;1.63;0.60;;;;;;;;;;5006667;28;20552;-85
2024/01/22 10:37:12;;;;;;;0.53;0.50;;;;;;;;;;5005659;28;20439;-83
2024/01/22 10:39:43;;;;;;;0.40;0.40;;;;;;;;;;5004766;28;20446;-84
2024/01/22 10:42:14;;;;;;;0.80;0.40;;;;;;;;;;5013434;28;20470;-83
2024/01/22 10:44:42;;;;;;;0.80;0.40;;;;;;;;;;5026506;28;20462;-85
2024/01/22 10:47:11;;;;;;;0.50;0.30;;;;;;;;;;5007558;28;20494;-85
2024/01/22 10:49:38;;;;;;;0.47;0.40;;;;;;;;;;5031946;28;20457;-85
2024/01/22 10:52:06;;;;;;;0.40;0.40;;;;;;;;;;5028864;28;20469;-83
2024/01/22 10:54:34;;;;;;;0.40;0.40;;;;;;;;;;5028153;28;20465;-85
2024/01/22 10:57:03;;;;;;;1.10;0.40;;;;;;;;;;5004580;28;20464;-85
2024/01/22 10:59:38;;;;;;;0.87;0.50;;;;;;;;;;5026111;28;20447;-86
2024/01/22 11:02:06;;;;;;;0.93;0.40;;;;;;;;;;5026782;28;20434;-84
2024/01/22 11:04:34;;;;;;;0.30;0.30;;;;;;;;;;5014762;28;20456;-83
2024/01/22 11:07:02;;;;;;;1.03;0.30;;;;;;;;;;5021675;28;20459;-81
2024/01/22 11:09:31;;;;;;;0.40;0.40;;;;;;;;;;5018019;28;20988;-84
2024/01/22 11:12:19;;;;;;;1.23;0.77;;;;;;;;;;5008960;28;20455;-83
2024/01/22 11:14:46;;;;;;;0.50;0.40;;;;;;;;;;5007176;28;20750;-85
2024/01/22 11:17:15;;;;;;;0.70;0.40;;;;;;;;;;4997108;28;20462;-86
2024/01/22 11:19:42;;;;;;;0.40;0.40;;;;;;;;;;4993984;28;20514;-86
2024/01/22 11:22:23;;;;;;;0.40;0.30;;;;;;;;;;5004904;28;20470;-86
2024/01/22 11:25:03;;;;;;;1.10;0.50;;;;;;;;;;4989180;28;22463;-86
2024/01/22 11:27:41;;;;;;;0.30;0.30;;;;;;;;;;5003817;28;20489;-84
2024/01/22 11:30:23;;;;;;;1.80;0.40;;;;;;;;;;5006191;28;20492;-84
2024/01/22 11:32:50;;;;;;;1.53;0.40;;;;;;;;;;4990581;28;20443;-84
2024/01/22 11:35:37;;;;;;;0.70;0.50;;;;;;;;;;4996790;28;20443;-82
2024/01/22 11:38:05;;;;;;;0.40;0.40;;;;;;;;;;4988556;28;20461;-84
2024/01/22 11:40:55;;;;;;;0.40;0.40;;;;;;;;;;5008699;28;20447;-83
2024/01/22 11:43:23;;;;;;;0.40;0.40;;;;;;;;;;4996748;28;20443;-85
2024/01/22 11:45:56;;;;;;;0.60;0.60;;;;;;;;;;4998469;28;20454;-84
2024/01/22 11:48:25;;;;;;;0.40;0.40;;;;;;;;;;5007526;28;20442;-84
2024/01/22 11:51:04;;;;;;;0.40;0.30;;;;;;;;;;4988868;28;20477;-85
2024/01/22 11:53:33;;;;;;;0.50;0.50;;;;;;;;;;4985641;28;20456;-84
2024/01/22 11:58:32;;;;;;;0.50;0.40;;;;;;;;;;4964684;28;20881;-84
2024/01/22 12:01:06;;;;;;;0.80;0.50;;;;;;;;;;4962826;28;20456;-82
2024/01/22 12:03:33;;;;;;;0.40;0.40;;;;;;;;;;4966187;28;20456;-85
2024/01/22 12:06:06;;;;;;;0.87;0.67;;;;;;;;;;4935411;28;20513;-83
2024/01/22 12:08:35;;;;;;;1.80;0.63;;;;;;;;;;4948919;28;20453;-83
2024/01/22 12:11:08;;;;;;;2.93;0.70;;;;;;;;;;4956016;28;20463;-84
2024/01/22 12:13:41;;;;;;;2.40;0.80;;;;;;;;;;4953293;28;20418;-85
2024/01/22 12:16:15;;;;;;;3.20;0.70;;;;;;;;;;4955950;28;20469;-84
2024/01/22 12:18:43;;;;;;;2.23;0.93;;;;;;;;;;4958898;28;20455;-87
2024/01/22 12:21:25;;;;;;;1.67;0.83;;;;;;;;;;4951256;28;20483;-85
2024/01/22 12:23:56;;;;;;;6.20;1.23;;;;;;;;;;4947466;28;20472;-83
2024/01/22 12:26:23;;;;;;;2.00;1.07;;;;;;;;;;4961222;28;20854;-84
2024/01/22 12:28:52;;;;;;;3.17;1.20;;;;;;;;;;4949513;28;20445;-85
2024/01/22 12:31:20;;;;;;;3.37;1.63;;;;;;;;;;4955733;28;20453;-83
2024/01/22 12:33:49;;;;;;;3.13;0.97;;;;;;;;;;4942140;28;20437;-83
2024/01/22 12:36:17;;;;;;;3.43;1.37;;;;;;;;;;4960055;28;20491;-83
2024/01/22 12:38:54;;;;;;;4.00;1.23;;;;;;;;;;4952915;28;20657;-83
2024/01/22 12:41:24;;;;;;;2.13;1.23;;;;;;;;;;4946968;28;20449;-82
2024/01/22 12:43:57;;;;;;;1.93;1.00;;;;;;;;;;4953731;28;20501;-84
2024/01/22 12:46:24;;;;;;;3.13;1.20;;;;;;;;;;4967490;28;20504;-82
2024/01/22 12:48:55;;;;;;;1.97;0.90;;;;;;;;;;4973758;28;20453;-85
2024/01/22 12:51:26;;;;;;;5.40;1.10;;;;;;;;;;4962080;28;20480;-84
2024/01/22 12:54:11;;;;;;;2.73;1.67;;;;;;;;;;4973681;28;20400;-83
2024/01/22 12:56:39;;;;;;;2.97;1.10;;;;;;;;;;4952456;28;20492;-85
2024/01/22 12:59:07;;;;;;;3.93;0.93;;;;;;;;;;4944760;28;20461;-85
2024/01/22 13:01:36;;;;;;;2.37;0.90;;;;;;;;;;4963152;28;20473;-85
2024/01/22 13:04:03;;;;;;;4.47;1.10;;;;;;;;;;4950748;28;20530;-86
2024/01/22 13:06:31;;;;;;;3.57;1.17;;;;;;;;;;4976812;28;20506;-86
2024/01/22 13:09:01;;;;;;;3.17;1.07;;;;;;;;;;4972895;28;20505;-86
2024/01/22 13:11:30;;;;;;;5.30;0.97;;;;;;;;;;4958875;28;20446;-86
2024/01/22 13:14:05;;;;;;;2.37;1.10;;;;;;;;;;4965388;29;20476;-83
2024/01/22 13:16:37;;;;;;;4.07;1.60;;;;;;;;;;4969173;28;20472;-84
2024/01/22 13:19:07;;;;;;;6.13;1.83;;;;;;;;;;4949612;28;20458;-85
2024/01/22 13:21:36;;;;;;;4.50;1.50;;;;;;;;;;4952261;28;21663;-85
2024/01/22 13:24:09;;;;;;;5.47;1.40;;;;;;;;;;4955029;28;20441;-86
2024/01/22 13:26:39;;;;;;;4.00;1.70;;;;;;;;;;4965202;28;20589;-87
2024/01/22 13:29:09;;;;;;;3.90;1.30;;;;;;;;;;4973867;28;20909;-86
2024/01/22 13:31:38;;;;;;;9.90;2.17;;;;;;;;;;4955458;28;21327;-87
2024/01/22 13:34:10;;;;;;;5.23;1.90;;;;;;;;;;4963465;28;20483;-86
2024/01/22 13:36:39;;;;;;;4.20;1.70;;;;;;;;;;4974000;28;20512;-86
2024/01/22 13:39:09;;;;;;;10.70;2.27;;;;;;;;;;4960363;28;20461;-84
2024/01/22 13:41:40;;;;;;;3.07;1.23;;;;;;;;;;4951108;28;20551;-86
2024/01/22 13:44:11;;;;;;;2.50;1.20;;;;;;;;;;4951648;28;20472;-86
2024/01/22 13:46:42;;;;;;;4.43;1.00;;;;;;;;;;4947439;28;20547;-86
2024/01/22 13:49:10;;;;;;;2.40;0.87;;;;;;;;;;4965424;28;20453;-86
2024/01/22 13:51:50;;;;;;;2.43;0.97;;;;;;;;;;4956687;28;20442;-86
2024/01/22 13:54:21;;;;;;;1.23;0.60;;;;;;;;;;4974592;28;20457;-86
2024/01/22 13:56:50;;;;;;;2.40;0.87;;;;;;;;;;4967667;28;20484;-87
2024/01/22 13:59:21;;;;;;;0.77;0.70;;;;;;;;;;4981483;28;20456;-85
2024/01/22 14:01:50;;;;;;;3.80;1.13;;;;;;;;;;4975835;28;20458;-87
2024/01/22 14:04:18;;;;;;;3.13;0.90;;;;;;;;;;4970254;28;20464;-86
2024/01/22 14:06:46;;;;;;;4.67;1.00;;;;;;;;;;4975271;28;20546;-87
2024/01/22 14:09:16;;;;;;;4.63;1.03;;;;;;;;;;4975912;28;20432;-87
2024/01/22 14:11:47;;;;;;;2.80;0.80;;;;;;;;;;4986761;28;20668;-85
2024/01/22 14:14:14;;;;;;;1.37;0.50;;;;;;;;;;4967396;28;20464;-85
2024/01/22 14:16:44;;;;;;;1.83;0.77;;;;;;;;;;4967636;28;20473;-86
2024/01/22 14:19:14;;;;;;;2.80;0.90;;;;;;;;;;4955207;28;20469;-86
2024/01/22 14:21:46;;;;;;;6.57;1.40;;;;;;;;;;4971628;28;20450;-86
2024/01/22 14:24:14;;;;;;;4.83;1.00;;;;;;;;;;4969985;28;20749;-86
2024/01/22 14:26:46;;;;;;;3.37;1.57;;;;;;;;;;4973988;28;20567;-86
2024/01/22 14:29:14;;;;;;;3.47;1.63;;;;;;;;;;4969532;28;20481;-87
2024/01/22 14:31:41;;;;;;;5.37;1.30;;;;;;;;;;4971446;28;20462;-86
2024/01/22 14:34:08;;;;;;;3.87;1.10;;;;;;;;;;4964265;28;20509;-86
2024/01/22 14:36:36;;;;;;;7.40;2.20;;;;;;;;;;4977938;28;20465;-85
2024/01/22 14:39:03;;;;;;;6.43;1.73;;;;;;;;;;4974924;28;20489;-87
2024/01/22 14:41:32;;;;;;;8.03;1.70;;;;;;;;;;4973397;28;20470;-86
2024/01/22 14:44:00;;;;;;;4.50;1.83;;;;;;;;;;4970021;28;20464;-85
2024/01/22 14:46:30;;;;;;;6.93;2.20;;;;;;;;;;4953343;28;20480;-84